TimeCDT,TemperatureF,Dew PointF,Humidity,Sea Level PressureIn,VisibilityMPH,Wind Direction,Wind SpeedMPH,Gust SpeedMPH,PrecipitationIn,Events,Conditions,WindDirDegrees,DateUTC
12:57 AM,73.9,68.0,82,30.06,10.0,Calm,Calm,-,N/A,,Clear,0,2013-08-28 05:57:00
1:57 AM,73.0,68.0,84,30.06,10.0,SE,3.5,-,N/A,,Clear,130,2013-08-28 06:57:00
2:57 AM,72.0,66.9,84,30.05,10.0,SE,3.5,-,N/A,,Clear,140,2013-08-28 07:57:00
3:57 AM,71.1,66.9,87,30.04,10.0,SSE,4.6,-,N/A,,Clear,150,2013-08-28 08:57:00
4:57 AM,70.0,66.0,87,30.05,10.0,SE,3.5,-,N/A,,Clear,140,2013-08-28 09:57:00
5:57 AM,70.0,64.9,84,30.06,10.0,Calm,Calm,-,N/A,,Clear,0,2013-08-28 10:57:00
6:57 AM,69.1,66.0,90,30.07,7.0,Calm,Calm,-,N/A,,Clear,0,2013-08-28 11:57:00
7:57 AM,72.0,66.9,84,30.08,10.0,SE,6.9,-,N/A,,Clear,140,2013-08-28 12:57:00
8:57 AM,77.0,66.9,71,30.09,10.0,South,5.8,-,N/A,,Clear,170,2013-08-28 13:57:00
9:57 AM,82.9,68.0,60,30.09,10.0,SSW,9.2,-,N/A,,Clear,200,2013-08-28 14:57:00
10:57 AM,86.0,69.1,57,30.09,10.0,SSW,8.1,-,N/A,,Clear,200,2013-08-28 15:57:00
11:57 AM,87.1,68.0,53,30.09,10.0,WSW,9.2,16.1,N/A,,Clear,240,2013-08-28 16:57:00
12:57 PM,87.1,66.9,51,30.08,10.0,WSW,12.7,-,N/A,,Clear,250,2013-08-28 17:57:00
1:57 PM,89.1,66.9,48,30.07,10.0,Variable,6.9,-,N/A,,Scattered Clouds,0,2013-08-28 18:57:00
2:57 PM,90.0,66.9,46,30.04,10.0,West,6.9,-,N/A,,Clear,260,2013-08-28 19:57:00
3:57 PM,88.0,66.9,49,30.04,10.0,West,4.6,-,N/A,,Partly Cloudy,260,2013-08-28 20:57:00
4:57 PM,90.0,66.9,46,30.03,10.0,SW,11.5,-,N/A,,Partly Cloudy,230,2013-08-28 21:57:00
5:57 PM,89.1,66.9,48,30.03,10.0,West,4.6,-,N/A,,Clear,270,2013-08-28 22:57:00
6:57 PM,86.0,69.1,57,30.04,10.0,WNW,3.5,-,N/A,,Clear,300,2013-08-28 23:57:00
7:57 PM,82.9,69.1,63,30.04,10.0,Calm,Calm,-,N/A,,Clear,0,2013-08-29 00:57:00
8:57 PM,80.1,70.0,71,30.05,10.0,Calm,Calm,-,N/A,,Clear,0,2013-08-29 01:57:00
9:57 PM,78.1,69.1,74,30.06,10.0,Calm,Calm,-,N/A,,Clear,0,2013-08-29 02:57:00
10:57 PM,75.9,68.0,76,30.06,10.0,East,3.5,-,N/A,,Clear,100,2013-08-29 03:57:00
11:57 PM,75.0,70.0,84,30.06,10.0,Calm,Calm,-,N/A,,Clear,0,2013-08-29 04:57:00